createdAt,value
2023-04-30T00:00:11.369Z,99.90
2023-04-30T00:02:38.842Z,99.90
2023-04-30T00:05:06.183Z,99.90
2023-04-30T00:07:33.465Z,99.90
2023-04-30T00:10:01.918Z,99.90
2023-04-30T00:12:29.638Z,99.90
2023-04-30T00:14:56.845Z,99.90
2023-04-30T00:17:24.099Z,99.90
2023-04-30T00:19:51.932Z,99.90
2023-04-30T00:22:19.291Z,99.90
2023-04-30T00:24:46.639Z,99.90
2023-04-30T00:27:13.840Z,99.90
2023-04-30T00:29:41.252Z,99.90
2023-04-30T00:32:08.557Z,99.90
2023-04-30T00:34:35.774Z,99.90
2023-04-30T00:37:02.883Z,99.90
2023-04-30T00:39:30.086Z,99.90
2023-04-30T00:41:57.448Z,99.90
2023-04-30T00:44:24.985Z,99.90
2023-04-30T00:46:52.072Z,99.90
2023-04-30T00:49:19.301Z,99.90
2023-04-30T00:51:46.539Z,99.90
2023-04-30T00:54:13.809Z,99.90
2023-04-30T00:56:41.176Z,99.90
2023-04-30T00:59:08.717Z,99.90
2023-04-30T01:01:35.957Z,99.90
2023-04-30T01:04:03.192Z,99.90
2023-04-30T01:06:30.377Z,99.90
2023-04-30T01:08:58.152Z,99.90
2023-04-30T01:11:42.600Z,99.90
2023-04-30T01:14:44.380Z,99.90
2023-04-30T01:17:33.991Z,99.90
2023-04-30T01:20:02.224Z,99.90
2023-04-30T01:22:29.167Z,99.90
2023-04-30T01:25:06.017Z,99.90
2023-04-30T01:27:54.885Z,99.90
2023-04-30T01:30:23.749Z,99.90
2023-04-30T01:32:51.082Z,99.90
2023-04-30T01:35:18.345Z,99.90
2023-04-30T01:38:16.486Z,99.90
2023-04-30T01:40:50.397Z,99.90
2023-04-30T01:43:23.483Z,99.90
2023-04-30T01:46:13.839Z,99.90
2023-04-30T01:48:45.654Z,99.90
2023-04-30T01:51:37.227Z,99.90
2023-04-30T01:54:16.841Z,99.90
2023-04-30T01:56:51.369Z,99.90
2023-04-30T01:59:19.044Z,99.90
2023-04-30T02:01:46.910Z,99.90
2023-04-30T02:04:14.111Z,99.90
2023-04-30T02:06:41.846Z,99.90
2023-04-30T02:09:10.747Z,99.90
2023-04-30T02:11:38.010Z,99.90
2023-04-30T02:14:06.266Z,99.90
2023-04-30T02:16:33.499Z,99.90
2023-04-30T02:19:00.898Z,99.90
2023-04-30T02:21:28.295Z,99.90
2023-04-30T02:23:55.331Z,99.90
2023-04-30T02:26:22.459Z,99.90
2023-04-30T02:28:49.843Z,99.90
2023-04-30T02:31:17.115Z,99.90
2023-04-30T02:33:44.221Z,99.90
2023-04-30T02:36:11.335Z,99.90
2023-04-30T02:38:38.534Z,99.90
2023-04-30T02:41:05.652Z,99.90
2023-04-30T02:43:32.802Z,99.90
2023-04-30T02:46:00.069Z,99.90
2023-04-30T02:48:27.378Z,99.90
2023-04-30T02:50:54.567Z,99.90
2023-04-30T02:53:21.791Z,99.90
2023-04-30T02:55:49.061Z,99.90
2023-04-30T02:58:16.362Z,99.90
2023-04-30T03:00:43.805Z,99.90
2023-04-30T03:03:11.417Z,99.90
2023-04-30T03:05:38.713Z,99.90
2023-04-30T03:08:06.022Z,99.90
2023-04-30T03:10:33.180Z,99.90
2023-04-30T03:13:00.433Z,99.90
2023-04-30T03:15:27.839Z,99.90
2023-04-30T03:17:55.115Z,99.90
2023-04-30T03:20:22.319Z,99.90
2023-04-30T03:22:49.404Z,99.90
2023-04-30T03:25:16.939Z,99.90
2023-04-30T03:27:44.072Z,99.90
2023-04-30T03:30:11.433Z,99.90
2023-04-30T03:32:39.017Z,99.90
2023-04-30T03:35:07.012Z,99.90
2023-04-30T03:37:34.182Z,99.90
2023-04-30T03:40:01.516Z,99.90
2023-04-30T03:42:28.675Z,99.90
2023-04-30T03:44:55.864Z,99.90
2023-04-30T03:47:23.061Z,99.90
2023-04-30T03:49:55.561Z,99.90
2023-04-30T03:52:23.551Z,99.90
2023-04-30T03:54:51.051Z,99.90
2023-04-30T03:57:18.413Z,99.90
2023-04-30T03:59:45.899Z,99.90
2023-04-30T04:02:13.152Z,99.90
2023-04-30T04:04:40.518Z,99.90
2023-04-30T04:07:09.663Z,99.90
2023-04-30T04:09:37.291Z,99.90
2023-04-30T04:12:04.585Z,99.90
2023-04-30T04:14:31.909Z,99.90
2023-04-30T04:17:00.167Z,99.90
2023-04-30T04:19:27.933Z,99.90
2023-04-30T04:21:55.099Z,99.90
2023-04-30T04:24:22.554Z,99.90
2023-04-30T04:26:49.778Z,99.90
2023-04-30T04:29:17.330Z,99.90
2023-04-30T04:31:44.750Z,99.90
2023-04-30T04:34:12.733Z,99.90
2023-04-30T04:36:40.247Z,99.90
2023-04-30T04:39:07.452Z,99.90
2023-04-30T04:41:35.783Z,99.90
2023-04-30T04:44:03.527Z,99.90
2023-04-30T04:46:32.197Z,99.90
2023-04-30T04:48:59.851Z,99.90
2023-04-30T04:51:27.218Z,99.90
2023-04-30T04:53:54.629Z,99.90
2023-04-30T04:56:22.077Z,99.90
2023-04-30T04:58:49.580Z,99.90
2023-04-30T05:01:16.833Z,99.90
2023-04-30T05:03:44.107Z,99.90
2023-04-30T05:06:11.363Z,99.90
2023-04-30T05:08:38.676Z,99.90
2023-04-30T05:11:06.088Z,99.90
2023-04-30T05:13:33.795Z,99.90
2023-04-30T05:16:01.684Z,99.90
2023-04-30T05:18:29.068Z,99.90
2023-04-30T05:20:56.749Z,99.90
2023-04-30T05:23:24.154Z,99.90
2023-04-30T05:25:55.287Z,99.90
2023-04-30T05:28:22.732Z,99.90
2023-04-30T05:30:49.966Z,99.90
2023-04-30T05:33:17.135Z,99.90
2023-04-30T05:35:44.403Z,99.90
2023-04-30T05:38:11.598Z,99.90
2023-04-30T05:40:38.895Z,99.90
2023-04-30T05:43:06.102Z,99.90
2023-04-30T05:45:33.913Z,99.90
2023-04-30T05:48:02.246Z,99.90
2023-04-30T05:50:29.642Z,99.90
2023-04-30T05:52:57.033Z,99.90
2023-04-30T05:55:24.646Z,99.90
2023-04-30T05:57:51.909Z,99.90
2023-04-30T06:00:19.773Z,99.90
2023-04-30T06:02:48.182Z,99.90
2023-04-30T06:05:16.295Z,99.90
2023-04-30T06:07:43.696Z,99.90
2023-04-30T06:10:11.919Z,99.90
2023-04-30T06:12:40.036Z,99.90
2023-04-30T06:15:08.204Z,99.90
2023-04-30T06:17:35.478Z,99.90
2023-04-30T06:20:07.018Z,99.90
2023-04-30T06:22:34.475Z,99.90
2023-04-30T06:25:01.701Z,99.90
2023-04-30T06:27:28.904Z,99.90
2023-04-30T06:29:56.313Z,99.90
2023-04-30T06:32:23.600Z,99.90
2023-04-30T06:34:50.806Z,99.90
2023-04-30T06:37:17.895Z,99.90
2023-04-30T06:39:45.217Z,99.90
2023-04-30T06:42:12.578Z,99.90
2023-04-30T06:44:39.782Z,99.90
2023-04-30T06:47:07.098Z,99.90
2023-04-30T06:49:34.311Z,99.90
2023-04-30T06:52:01.647Z,99.90
2023-04-30T06:54:29.177Z,99.90
2023-04-30T06:56:56.408Z,99.90
2023-04-30T06:59:23.569Z,99.90
2023-04-30T07:01:50.911Z,99.90
2023-04-30T07:04:18.083Z,99.90
2023-04-30T07:06:45.294Z,99.90
2023-04-30T07:09:13.031Z,99.90
2023-04-30T07:11:40.270Z,99.90
2023-04-30T07:14:07.421Z,99.90
2023-04-30T07:16:34.655Z,99.90
2023-04-30T07:19:01.891Z,99.90
2023-04-30T07:21:29.251Z,99.90
2023-04-30T07:23:56.376Z,99.90
2023-04-30T07:26:25.867Z,99.90
2023-04-30T07:28:53.092Z,99.90
2023-04-30T07:31:20.469Z,99.90
2023-04-30T07:33:49.064Z,99.90
2023-04-30T07:36:16.991Z,99.90
2023-04-30T07:38:44.119Z,99.90
2023-04-30T07:41:11.256Z,99.90
2023-04-30T07:43:38.359Z,99.90
2023-04-30T07:46:05.545Z,99.90
2023-04-30T07:48:32.732Z,99.90
2023-04-30T07:50:59.986Z,99.90
2023-04-30T07:53:27.271Z,99.90
2023-04-30T07:55:55.591Z,99.90
2023-04-30T07:58:22.767Z,99.90
2023-04-30T08:00:50.170Z,99.90
2023-04-30T08:03:18.094Z,99.90
2023-04-30T08:05:46.298Z,99.90
2023-04-30T08:08:13.386Z,99.90
2023-04-30T08:10:41.960Z,99.90
2023-04-30T08:13:09.068Z,99.90
2023-04-30T08:15:36.235Z,99.90
2023-04-30T08:18:03.497Z,99.90
2023-04-30T08:20:30.716Z,99.90
2023-04-30T08:22:58.009Z,99.90
2023-04-30T08:25:25.002Z,99.90
2023-04-30T08:27:51.945Z,99.90
2023-04-30T08:30:19.158Z,99.90
2023-04-30T08:32:46.241Z,99.90
2023-04-30T08:35:13.251Z,99.90
2023-04-30T08:37:40.245Z,99.90
2023-04-30T08:40:09.794Z,99.90
2023-04-30T08:42:38.202Z,99.90
2023-04-30T08:45:06.895Z,99.90
2023-04-30T08:47:34.157Z,99.90
2023-04-30T08:50:01.494Z,99.90
2023-04-30T08:52:31.202Z,99.90
2023-04-30T08:55:01.120Z,99.90
2023-04-30T08:57:28.316Z,99.90
2023-04-30T08:59:55.638Z,99.90
2023-04-30T09:02:23.662Z,99.90
2023-04-30T09:04:51.230Z,99.90
2023-04-30T09:07:19.867Z,99.90
2023-04-30T09:09:46.914Z,99.90
2023-04-30T09:12:19.346Z,99.90
2023-04-30T09:15:01.987Z,99.90
2023-04-30T09:17:29.601Z,99.90
2023-04-30T09:20:13.105Z,99.90
2023-04-30T09:22:41.746Z,99.90
2023-04-30T09:25:09.796Z,99.90
2023-04-30T09:27:37.042Z,99.90
2023-04-30T09:30:04.792Z,99.90
2023-04-30T09:32:31.942Z,99.90
2023-04-30T09:34:59.046Z,99.90
2023-04-30T09:37:39.062Z,99.90
2023-04-30T09:40:07.186Z,99.90
2023-04-30T09:42:34.316Z,99.90
2023-04-30T09:45:01.191Z,99.90
2023-04-30T09:47:31.941Z,99.90
2023-04-30T09:49:59.840Z,99.90
2023-04-30T09:52:27.082Z,99.10
2023-04-30T09:54:54.775Z,98.40
2023-04-30T09:57:24.475Z,98.70
2023-04-30T09:59:53.658Z,99.20
2023-04-30T10:02:23.604Z,99.90
2023-04-30T10:04:57.847Z,99.90
2023-04-30T10:07:30.283Z,99.90
2023-04-30T10:10:08.369Z,99.90
2023-04-30T10:12:45.041Z,99.90
2023-04-30T10:15:17.735Z,99.90
2023-04-30T10:17:50.595Z,99.90
2023-04-30T10:20:18.947Z,99.60
2023-04-30T10:22:48.199Z,99.70
2023-04-30T10:25:16.361Z,99.70
2023-04-30T10:27:43.588Z,98.20
2023-04-30T10:30:12.224Z,99.20
2023-04-30T10:32:47.546Z,99.00
2023-04-30T10:35:26.270Z,98.40
2023-04-30T10:38:18.155Z,98.00
2023-04-30T10:40:48.459Z,98.40
2023-04-30T10:43:19.471Z,98.90
2023-04-30T10:45:47.292Z,98.60
2023-04-30T10:48:16.975Z,98.30
2023-04-30T10:50:46.205Z,98.80
2023-04-30T10:53:16.178Z,99.70
2023-04-30T10:56:09.960Z,99.40
2023-04-30T10:58:39.574Z,99.10
2023-04-30T11:01:12.761Z,98.40
2023-04-30T11:03:43.986Z,98.50
2023-04-30T11:06:16.123Z,98.60
2023-04-30T11:08:45.859Z,98.40
2023-04-30T11:11:18.846Z,97.90
2023-04-30T11:13:46.904Z,98.20
2023-04-30T11:16:16.641Z,98.50
2023-04-30T11:18:47.372Z,97.60
2023-04-30T11:21:14.632Z,97.40
2023-04-30T11:23:43.510Z,98.10
2023-04-30T11:26:11.387Z,99.90
2023-04-30T11:28:38.739Z,98.40
2023-04-30T11:31:06.344Z,98.00
2023-04-30T11:33:34.993Z,98.80
2023-04-30T11:36:02.249Z,97.60
2023-04-30T11:38:36.905Z,97.70
2023-04-30T11:41:04.881Z,96.90
2023-04-30T11:43:33.270Z,96.30
2023-04-30T11:46:08.609Z,96.10
2023-04-30T11:48:38.159Z,96.40
2023-04-30T11:51:15.637Z,97.00
2023-04-30T11:53:43.542Z,97.00
2023-04-30T11:56:10.810Z,97.50
2023-04-30T11:58:39.357Z,96.30
2023-04-30T12:01:09.990Z,96.50
2023-04-30T12:03:48.053Z,96.40
2023-04-30T12:06:29.153Z,96.10
2023-04-30T12:08:57.679Z,95.50
2023-04-30T12:11:29.795Z,95.50
2023-04-30T12:14:02.803Z,96.20
2023-04-30T12:16:51.895Z,95.70
2023-04-30T12:19:25.260Z,95.70
2023-04-30T12:21:55.156Z,95.30
2023-04-30T12:24:23.681Z,95.20
2023-04-30T12:26:53.673Z,95.90
2023-04-30T12:29:21.991Z,96.30
2023-04-30T12:31:51.194Z,96.80
2023-04-30T12:34:18.944Z,94.10
2023-04-30T12:36:46.325Z,94.90
2023-04-30T12:39:17.964Z,94.50
2023-04-30T12:41:47.224Z,95.10
2023-04-30T12:44:21.777Z,94.50
2023-04-30T12:46:50.460Z,94.50
2023-04-30T12:49:28.757Z,93.80
2023-04-30T12:52:05.202Z,94.40
2023-04-30T12:54:33.537Z,94.70
2023-04-30T12:57:01.664Z,93.30
2023-04-30T12:59:29.676Z,93.80
2023-04-30T13:02:14.884Z,93.70
2023-04-30T13:04:42.825Z,93.20
2023-04-30T13:07:10.266Z,93.00
2023-04-30T13:09:38.385Z,93.50
2023-04-30T13:12:06.272Z,94.20
2023-04-30T13:14:33.803Z,93.60
2023-04-30T13:17:02.750Z,92.90
2023-04-30T13:19:30.311Z,93.40
2023-04-30T13:21:59.034Z,93.00
2023-04-30T13:24:26.148Z,93.70
2023-04-30T13:26:53.199Z,93.70
2023-04-30T13:29:22.822Z,94.10
2023-04-30T13:31:49.969Z,92.70
2023-04-30T13:34:17.043Z,93.30
2023-04-30T13:36:43.935Z,92.60
2023-04-30T13:39:10.972Z,92.30
2023-04-30T13:41:38.166Z,93.10
2023-04-30T13:44:05.236Z,92.60
2023-04-30T13:46:32.207Z,93.00
2023-04-30T13:48:59.723Z,93.30
2023-04-30T13:51:27.879Z,94.10
2023-04-30T13:53:54.969Z,93.10
2023-04-30T13:56:22.097Z,93.80
2023-04-30T13:58:49.354Z,93.20
2023-04-30T14:01:16.640Z,93.70
2023-04-30T14:03:43.856Z,94.40
2023-04-30T14:06:11.014Z,94.70
2023-04-30T14:08:38.142Z,93.60
2023-04-30T14:11:05.224Z,93.90
2023-04-30T14:13:32.463Z,93.90
2023-04-30T14:15:59.462Z,92.90
2023-04-30T14:18:26.772Z,93.60
2023-04-30T14:20:53.667Z,93.40
2023-04-30T14:23:20.856Z,92.80
2023-04-30T14:25:47.852Z,92.90
2023-04-30T14:28:15.013Z,92.80
2023-04-30T14:30:41.896Z,93.00
2023-04-30T14:33:11.097Z,92.80
2023-04-30T14:35:38.234Z,92.40
2023-04-30T14:38:05.157Z,93.10
2023-04-30T14:40:32.311Z,92.80
2023-04-30T14:42:59.274Z,92.30
2023-04-30T14:45:28.273Z,93.00
2023-04-30T14:47:55.475Z,92.70
2023-04-30T14:50:22.655Z,93.10
2023-04-30T14:52:49.969Z,93.70
2023-04-30T14:55:17.112Z,92.50
2023-04-30T14:57:44.100Z,92.60
2023-04-30T15:00:12.245Z,92.20
2023-04-30T15:02:39.316Z,92.60
2023-04-30T15:05:08.533Z,92.90
2023-04-30T15:07:36.901Z,92.60
2023-04-30T15:10:04.573Z,92.90
2023-04-30T15:12:31.609Z,92.50
2023-04-30T15:14:58.573Z,92.50
2023-04-30T15:17:25.919Z,94.00
2023-04-30T15:19:54.138Z,93.30
2023-04-30T15:22:21.464Z,92.20
2023-04-30T15:24:48.377Z,92.80
2023-04-30T15:27:15.322Z,91.90
2023-04-30T15:29:42.327Z,92.30
2023-04-30T15:32:09.247Z,92.40
2023-04-30T15:34:36.195Z,92.50
2023-04-30T15:37:03.390Z,92.70
2023-04-30T15:39:30.427Z,92.70
2023-04-30T15:41:57.465Z,92.90
2023-04-30T15:44:24.510Z,93.00
2023-04-30T15:46:52.131Z,92.40
2023-04-30T15:49:19.283Z,92.70
2023-04-30T15:51:46.570Z,93.30
2023-04-30T15:54:14.031Z,93.60
2023-04-30T15:56:41.225Z,93.80
2023-04-30T15:59:08.284Z,93.40
2023-04-30T16:01:35.485Z,93.50
2023-04-30T16:04:03.044Z,93.60
2023-04-30T16:06:32.279Z,93.20
2023-04-30T16:08:59.581Z,93.60
2023-04-30T16:11:26.666Z,92.70
2023-04-30T16:13:54.512Z,93.40
2023-04-30T16:16:21.656Z,93.10
2023-04-30T16:18:48.745Z,92.80
2023-04-30T16:21:16.598Z,93.40
2023-04-30T16:23:44.107Z,94.20
2023-04-30T16:26:11.119Z,94.20
2023-04-30T16:28:38.385Z,93.90
2023-04-30T16:31:05.435Z,94.00
2023-04-30T16:33:32.463Z,93.90
2023-04-30T16:35:59.528Z,93.60
2023-04-30T16:38:26.914Z,93.70
2023-04-30T16:40:55.088Z,93.70
2023-04-30T16:43:22.075Z,94.10
2023-04-30T16:45:50.102Z,94.00
2023-04-30T16:48:17.713Z,94.40
2023-04-30T16:50:44.911Z,93.80
2023-04-30T16:53:12.122Z,94.10
2023-04-30T16:55:39.293Z,93.90
2023-04-30T16:58:06.389Z,94.20
2023-04-30T17:00:34.037Z,94.50
2023-04-30T17:03:01.115Z,94.30
2023-04-30T17:05:28.441Z,94.50
2023-04-30T17:07:55.845Z,94.70
2023-04-30T17:10:23.274Z,94.60
2023-04-30T17:12:50.249Z,94.60
2023-04-30T17:15:19.036Z,94.80
2023-04-30T17:17:46.156Z,94.90
2023-04-30T17:20:13.326Z,94.60
2023-04-30T17:22:40.717Z,94.50
2023-04-30T17:25:08.276Z,94.80
2023-04-30T17:27:35.809Z,95.00
2023-04-30T17:30:04.451Z,95.00
2023-04-30T17:32:31.454Z,95.20
2023-04-30T17:34:58.646Z,95.50
2023-04-30T17:37:25.773Z,95.10
2023-04-30T17:39:53.044Z,95.40
2023-04-30T17:42:20.151Z,95.50
2023-04-30T17:44:47.104Z,95.50
2023-04-30T17:47:16.197Z,95.80
2023-04-30T17:49:43.896Z,95.70
2023-04-30T17:52:10.948Z,95.90
2023-04-30T17:54:38.187Z,95.60
2023-04-30T17:57:05.098Z,95.80
2023-04-30T17:59:32.422Z,95.90
2023-04-30T18:01:59.752Z,96.00
2023-04-30T18:04:26.901Z,96.00
2023-04-30T18:06:54.158Z,96.00
2023-04-30T18:09:21.347Z,96.00
2023-04-30T18:11:48.358Z,96.10
2023-04-30T18:14:15.500Z,96.40
2023-04-30T18:16:42.595Z,96.10
2023-04-30T18:19:09.787Z,96.20
2023-04-30T18:21:36.749Z,96.30
2023-04-30T18:24:03.882Z,96.00
2023-04-30T18:26:31.034Z,96.20
2023-04-30T18:28:58.212Z,96.00
2023-04-30T18:31:25.203Z,95.80
2023-04-30T18:33:52.347Z,95.80
2023-04-30T18:36:19.452Z,95.80
2023-04-30T18:38:46.498Z,95.90
2023-04-30T18:41:13.472Z,96.20
2023-04-30T18:43:42.614Z,96.50
2023-04-30T18:46:09.774Z,96.50
2023-04-30T18:48:36.798Z,96.70
2023-04-30T18:51:04.037Z,97.00
2023-04-30T18:53:31.205Z,96.90
2023-04-30T18:55:58.244Z,97.20
2023-04-30T18:58:25.269Z,97.20
2023-04-30T19:00:56.816Z,97.60
2023-04-30T19:03:24.818Z,97.40
2023-04-30T19:05:57.510Z,97.60
2023-04-30T19:08:24.950Z,97.60
2023-04-30T19:10:53.456Z,97.30
2023-04-30T19:13:20.504Z,97.60
2023-04-30T19:15:48.859Z,97.70
2023-04-30T19:18:16.871Z,97.80
2023-04-30T19:20:43.740Z,97.70
2023-04-30T19:23:10.726Z,97.90
2023-04-30T19:25:37.849Z,97.80
2023-04-30T19:28:05.186Z,97.90
2023-04-30T19:30:32.290Z,98.10
2023-04-30T19:32:59.287Z,98.10
2023-04-30T19:35:26.199Z,98.10
2023-04-30T19:37:53.269Z,98.20
2023-04-30T19:40:20.248Z,98.40
2023-04-30T19:42:47.672Z,97.90
2023-04-30T19:45:14.682Z,97.80
2023-04-30T19:47:41.974Z,97.90
2023-04-30T19:50:09.283Z,97.90
2023-04-30T19:52:36.362Z,98.20
2023-04-30T19:55:03.606Z,98.30
2023-04-30T19:57:35.019Z,98.50
2023-04-30T20:00:04.501Z,98.50
2023-04-30T20:02:32.698Z,98.50
2023-04-30T20:04:59.782Z,98.50
2023-04-30T20:07:26.686Z,98.50
2023-04-30T20:09:53.964Z,98.40
2023-04-30T20:12:21.134Z,98.80
2023-04-30T20:14:48.434Z,98.90
2023-04-30T20:17:15.676Z,98.90
2023-04-30T20:19:42.645Z,99.30
2023-04-30T20:22:13.191Z,99.30
2023-04-30T20:24:44.648Z,99.20
2023-04-30T20:27:14.998Z,99.10
2023-04-30T20:29:42.097Z,99.30
2023-04-30T20:32:09.393Z,99.10
2023-04-30T20:34:37.182Z,98.50
2023-04-30T20:37:05.694Z,98.70
2023-04-30T20:39:32.773Z,98.40
2023-04-30T20:42:01.358Z,98.40
2023-04-30T20:44:28.454Z,98.70
2023-04-30T20:46:55.579Z,98.70
2023-04-30T20:49:22.577Z,98.80
2023-04-30T20:51:49.612Z,98.60
2023-04-30T20:54:16.540Z,98.80
2023-04-30T20:56:45.121Z,98.80
2023-04-30T20:59:12.398Z,98.90
2023-04-30T21:01:39.861Z,98.80
2023-04-30T21:04:07.802Z,98.80
2023-04-30T21:06:34.875Z,99.00
2023-04-30T21:09:02.123Z,99.00
2023-04-30T21:11:29.119Z,99.30
2023-04-30T21:13:57.152Z,99.50
2023-04-30T21:16:24.271Z,99.70
2023-04-30T21:18:51.216Z,99.70
2023-04-30T21:21:18.401Z,99.90
2023-04-30T21:23:47.897Z,99.80
2023-04-30T21:26:16.613Z,99.90
2023-04-30T21:28:44.034Z,99.90
2023-04-30T21:31:11.216Z,99.90
2023-04-30T21:33:38.838Z,99.90
2023-04-30T21:36:06.191Z,99.90
2023-04-30T21:38:34.098Z,99.90
2023-04-30T21:41:01.580Z,99.90
2023-04-30T21:43:28.825Z,99.90
2023-04-30T21:46:02.301Z,99.90
2023-04-30T21:48:29.313Z,99.90
2023-04-30T21:50:56.451Z,99.90
2023-04-30T21:53:23.892Z,99.90
2023-04-30T21:55:51.278Z,99.90
2023-04-30T21:58:18.420Z,99.90
2023-04-30T22:00:46.605Z,99.90
2023-04-30T22:03:15.557Z,99.90
2023-04-30T22:05:43.665Z,99.90
2023-04-30T22:08:10.938Z,99.90
2023-04-30T22:10:38.051Z,99.90
2023-04-30T22:13:05.234Z,99.90
2023-04-30T22:15:47.269Z,99.90
2023-04-30T22:18:15.153Z,99.90
2023-04-30T22:20:42.524Z,99.90
2023-04-30T22:23:09.885Z,99.90
2023-04-30T22:25:37.092Z,99.90
2023-04-30T22:28:04.202Z,99.90
2023-04-30T22:30:31.438Z,99.90
2023-04-30T22:32:58.609Z,99.90
2023-04-30T22:35:27.964Z,99.90
2023-04-30T22:37:55.357Z,99.90
2023-04-30T22:40:22.890Z,99.90
2023-04-30T22:42:49.992Z,99.90
2023-04-30T22:45:17.395Z,99.90
2023-04-30T22:47:45.832Z,99.90
2023-04-30T22:50:12.982Z,99.90
2023-04-30T22:52:40.225Z,99.90
2023-04-30T22:55:08.545Z,99.90
2023-04-30T22:57:36.229Z,99.90
2023-04-30T23:00:04.506Z,99.90
2023-04-30T23:02:31.647Z,99.90
2023-04-30T23:04:59.079Z,99.90
2023-04-30T23:07:26.363Z,99.90
2023-04-30T23:09:53.697Z,99.90
2023-04-30T23:12:21.147Z,99.90
2023-04-30T23:14:48.260Z,99.90
2023-04-30T23:17:15.300Z,99.90
2023-04-30T23:19:42.396Z,99.90
2023-04-30T23:22:10.421Z,99.90
2023-04-30T23:24:38.717Z,99.90
2023-04-30T23:27:06.101Z,99.90
2023-04-30T23:29:34.966Z,99.90
2023-04-30T23:32:04.403Z,99.90
2023-04-30T23:34:32.049Z,99.90
2023-04-30T23:36:59.239Z,99.90
2023-04-30T23:39:26.500Z,99.90
2023-04-30T23:41:53.961Z,99.90
2023-04-30T23:44:21.841Z,99.90
2023-04-30T23:46:50.979Z,99.90
2023-04-30T23:49:18.532Z,99.90
2023-04-30T23:51:45.854Z,99.90
2023-04-30T23:54:13.333Z,99.90
2023-04-30T23:56:40.522Z,99.90
2023-04-30T23:59:07.900Z,99.90
